Maldives Meteorological Service

SYNOP

Station Code SYNOP
43555
AAXX 27094 43555 42468 72906 10312 20253 30088 40090 82202 333 59007 82818 87077=
43533
AAXX 27094 43533 42462 42907 10315 20259 30088 40090 83202 333 59005 83818=
43577
AAXX 27094 43577 42464 79901 10324 20255 30091 40093 82232 333 59004 82818 86076=
43588
AAXX 27094 43588 41456 82906 10256 20255 30096 40097 78082 8592/ 333 58001 81710 83816 81917 88460=
43599
AAXX 27094 43599 42460 73604 10305 20253 30091 40093 82932 333 59004 82817 81918 87076=
Last Updated : 2019-06-27 14:00:38